sensor_id;sensor_type;location;lat;lon;timestamp;temperature;humidity
24410;DHT22;12543;53.364;-1.504;2023-04-03T00:01:24;5.70;99.90
24410;DHT22;12543;53.364;-1.504;2023-04-03T00:03:51;5.70;99.90
24410;DHT22;12543;53.364;-1.504;2023-04-03T00:06:18;5.70;99.90
24410;DHT22;12543;53.364;-1.504;2023-04-03T00:08:45;5.70;99.90
24410;DHT22;12543;53.364;-1.504;2023-04-03T00:11:12;5.60;99.90
24410;DHT22;12543;53.364;-1.504;2023-04-03T00:13:39;5.60;99.90
24410;DHT22;12543;53.364;-1.504;2023-04-03T00:16:07;5.60;99.90
24410;DHT22;12543;53.364;-1.504;2023-04-03T00:18:34;5.60;99.90
24410;DHT22;12543;53.364;-1.504;2023-04-03T00:21:01;5.60;99.90
24410;DHT22;12543;53.364;-1.504;2023-04-03T00:23:28;5.60;99.90
24410;DHT22;12543;53.364;-1.504;2023-04-03T00:25:55;5.60;99.90
24410;DHT22;12543;53.364;-1.504;2023-04-03T00:28:22;5.50;99.90
24410;DHT22;12543;53.364;-1.504;2023-04-03T00:30:49;5.50;99.90
24410;DHT22;12543;53.364;-1.504;2023-04-03T00:33:16;5.50;99.90
24410;DHT22;12543;53.364;-1.504;2023-04-03T00:35:44;5.50;99.90
24410;DHT22;12543;53.364;-1.504;2023-04-03T00:38:12;5.50;99.90
24410;DHT22;12543;53.364;-1.504;2023-04-03T00:40:41;5.50;99.90
24410;DHT22;12543;53.364;-1.504;2023-04-03T00:43:13;5.40;99.90
24410;DHT22;12543;53.364;-1.504;2023-04-03T00:45:41;5.40;99.90
24410;DHT22;12543;53.364;-1.504;2023-04-03T00:48:17;5.40;99.90
24410;DHT22;12543;53.364;-1.504;2023-04-03T00:50:45;5.40;99.90
24410;DHT22;12543;53.364;-1.504;2023-04-03T00:53:17;5.30;99.90
24410;DHT22;12543;53.364;-1.504;2023-04-03T00:55:45;5.30;99.90
24410;DHT22;12543;53.364;-1.504;2023-04-03T00:58:13;5.30;99.90
24410;DHT22;12543;53.364;-1.504;2023-04-03T01:00:42;5.30;99.90
24410;DHT22;12543;53.364;-1.504;2023-04-03T01:03:11;5.30;99.90
24410;DHT22;12543;53.364;-1.504;2023-04-03T01:05:39;5.30;99.90
24410;DHT22;12543;53.364;-1.504;2023-04-03T01:08:07;5.20;99.90
24410;DHT22;12543;53.364;-1.504;2023-04-03T01:10:34;5.20;99.90
24410;DHT22;12543;53.364;-1.504;2023-04-03T01:13:01;5.20;99.90
24410;DHT22;12543;53.364;-1.504;2023-04-03T01:15:43;5.20;99.90
24410;DHT22;12543;53.364;-1.504;2023-04-03T01:18:10;5.20;99.90
24410;DHT22;12543;53.364;-1.504;2023-04-03T01:23:21;5.10;99.90
24410;DHT22;12543;53.364;-1.504;2023-04-03T01:25:54;5.10;99.90
24410;DHT22;12543;53.364;-1.504;2023-04-03T01:28:26;5.10;99.90
24410;DHT22;12543;53.364;-1.504;2023-04-03T01:31:03;5.10;99.90
24410;DHT22;12543;53.364;-1.504;2023-04-03T01:33:34;5.00;99.90
24410;DHT22;12543;53.364;-1.504;2023-04-03T01:36:02;5.00;99.90
24410;DHT22;12543;53.364;-1.504;2023-04-03T01:38:29;5.00;99.90
24410;DHT22;12543;53.364;-1.504;2023-04-03T01:40:57;5.00;99.90
24410;DHT22;12543;53.364;-1.504;2023-04-03T01:43:24;4.90;99.90
24410;DHT22;12543;53.364;-1.504;2023-04-03T01:45:51;4.90;99.90
24410;DHT22;12543;53.364;-1.504;2023-04-03T01:48:21;4.90;99.90
24410;DHT22;12543;53.364;-1.504;2023-04-03T01:50:48;4.90;99.90
24410;DHT22;12543;53.364;-1.504;2023-04-03T01:53:15;4.80;99.90
24410;DHT22;12543;53.364;-1.504;2023-04-03T01:55:42;4.80;99.90
24410;DHT22;12543;53.364;-1.504;2023-04-03T01:58:09;4.80;99.90
24410;DHT22;12543;53.364;-1.504;2023-04-03T02:00:36;4.80;99.90
24410;DHT22;12543;53.364;-1.504;2023-04-03T02:03:04;4.70;99.90
24410;DHT22;12543;53.364;-1.504;2023-04-03T02:05:31;4.70;99.90
24410;DHT22;12543;53.364;-1.504;2023-04-03T02:07:59;4.70;99.90
24410;DHT22;12543;53.364;-1.504;2023-04-03T02:10:25;4.70;99.90
24410;DHT22;12543;53.364;-1.504;2023-04-03T02:12:52;4.70;99.90
24410;DHT22;12543;53.364;-1.504;2023-04-03T02:15:21;4.70;99.90
24410;DHT22;12543;53.364;-1.504;2023-04-03T02:17:48;4.60;99.90
24410;DHT22;12543;53.364;-1.504;2023-04-03T02:20:15;4.60;99.90
24410;DHT22;12543;53.364;-1.504;2023-04-03T02:22:43;4.60;99.90
24410;DHT22;12543;53.364;-1.504;2023-04-03T02:25:10;4.60;99.90
24410;DHT22;12543;53.364;-1.504;2023-04-03T02:27:37;4.60;99.90
24410;DHT22;12543;53.364;-1.504;2023-04-03T02:30:04;4.60;99.90
24410;DHT22;12543;53.364;-1.504;2023-04-03T02:32:32;4.50;99.90
24410;DHT22;12543;53.364;-1.504;2023-04-03T02:35:00;4.50;99.90
24410;DHT22;12543;53.364;-1.504;2023-04-03T02:37:27;4.50;99.90
24410;DHT22;12543;53.364;-1.504;2023-04-03T02:39:55;4.50;99.90
24410;DHT22;12543;53.364;-1.504;2023-04-03T02:42:22;4.50;99.90
24410;DHT22;12543;53.364;-1.504;2023-04-03T02:44:50;4.50;99.90
24410;DHT22;12543;53.364;-1.504;2023-04-03T02:47:17;4.40;99.90
24410;DHT22;12543;53.364;-1.504;2023-04-03T02:49:44;4.40;99.90
24410;DHT22;12543;53.364;-1.504;2023-04-03T02:52:13;4.40;99.90
24410;DHT22;12543;53.364;-1.504;2023-04-03T02:54:40;4.40;99.90
24410;DHT22;12543;53.364;-1.504;2023-04-03T02:57:09;4.40;99.90
24410;DHT22;12543;53.364;-1.504;2023-04-03T02:59:37;4.40;99.90
24410;DHT22;12543;53.364;-1.504;2023-04-03T03:02:09;4.30;99.90
24410;DHT22;12543;53.364;-1.504;2023-04-03T03:04:36;4.30;99.90
24410;DHT22;12543;53.364;-1.504;2023-04-03T03:07:03;4.30;99.90
24410;DHT22;12543;53.364;-1.504;2023-04-03T03:09:31;4.30;99.90
24410;DHT22;12543;53.364;-1.504;2023-04-03T03:11:58;4.30;99.90
24410;DHT22;12543;53.364;-1.504;2023-04-03T03:14:25;4.30;99.90
24410;DHT22;12543;53.364;-1.504;2023-04-03T03:16:52;4.20;99.90
24410;DHT22;12543;53.364;-1.504;2023-04-03T03:19:19;4.20;99.90
24410;DHT22;12543;53.364;-1.504;2023-04-03T03:21:46;4.20;99.90
24410;DHT22;12543;53.364;-1.504;2023-04-03T03:24:13;4.20;99.90
24410;DHT22;12543;53.364;-1.504;2023-04-03T03:26:42;4.10;99.90
24410;DHT22;12543;53.364;-1.504;2023-04-03T03:29:09;4.10;99.90
24410;DHT22;12543;53.364;-1.504;2023-04-03T03:31:36;4.10;99.90
24410;DHT22;12543;53.364;-1.504;2023-04-03T03:34:03;4.10;99.90
24410;DHT22;12543;53.364;-1.504;2023-04-03T03:36:30;4.00;99.90
24410;DHT22;12543;53.364;-1.504;2023-04-03T03:38:58;4.00;99.90
24410;DHT22;12543;53.364;-1.504;2023-04-03T03:41:25;4.00;99.90
24410;DHT22;12543;53.364;-1.504;2023-04-03T03:43:52;4.00;99.90
24410;DHT22;12543;53.364;-1.504;2023-04-03T03:46:20;3.90;99.90
24410;DHT22;12543;53.364;-1.504;2023-04-03T03:48:47;3.90;99.90
24410;DHT22;12543;53.364;-1.504;2023-04-03T03:51:14;3.90;99.90
24410;DHT22;12543;53.364;-1.504;2023-04-03T03:53:42;3.90;99.90
24410;DHT22;12543;53.364;-1.504;2023-04-03T03:56:13;3.80;99.90
24410;DHT22;12543;53.364;-1.504;2023-04-03T03:58:41;3.80;99.90
24410;DHT22;12543;53.364;-1.504;2023-04-03T04:01:08;3.80;99.90
24410;DHT22;12543;53.364;-1.504;2023-04-03T04:03:40;3.80;99.90
24410;DHT22;12543;53.364;-1.504;2023-04-03T04:06:10;3.80;99.90
24410;DHT22;12543;53.364;-1.504;2023-04-03T04:08:37;3.80;99.90
24410;DHT22;12543;53.364;-1.504;2023-04-03T04:11:07;3.70;99.90
24410;DHT22;12543;53.364;-1.504;2023-04-03T04:13:35;3.70;99.90
24410;DHT22;12543;53.364;-1.504;2023-04-03T04:16:02;3.70;99.90
24410;DHT22;12543;53.364;-1.504;2023-04-03T04:18:31;3.70;99.90
24410;DHT22;12543;53.364;-1.504;2023-04-03T04:20:58;3.70;99.90
24410;DHT22;12543;53.364;-1.504;2023-04-03T04:23:25;3.70;99.90
24410;DHT22;12543;53.364;-1.504;2023-04-03T04:25:52;3.60;99.90
24410;DHT22;12543;53.364;-1.504;2023-04-03T04:28:20;3.60;99.90
24410;DHT22;12543;53.364;-1.504;2023-04-03T04:30:50;3.60;99.90
24410;DHT22;12543;53.364;-1.504;2023-04-03T04:33:20;3.60;99.90
24410;DHT22;12543;53.364;-1.504;2023-04-03T04:35:47;3.60;99.90
24410;DHT22;12543;53.364;-1.504;2023-04-03T04:38:17;3.60;99.90
24410;DHT22;12543;53.364;-1.504;2023-04-03T04:40:44;3.60;99.90
24410;DHT22;12543;53.364;-1.504;2023-04-03T04:43:11;3.60;99.90
24410;DHT22;12543;53.364;-1.504;2023-04-03T04:45:43;3.60;99.90
24410;DHT22;12543;53.364;-1.504;2023-04-03T04:48:10;3.60;99.90
24410;DHT22;12543;53.364;-1.504;2023-04-03T04:50:38;3.50;99.90
24410;DHT22;12543;53.364;-1.504;2023-04-03T04:53:05;3.50;99.90
24410;DHT22;12543;53.364;-1.504;2023-04-03T04:55:32;3.50;99.90
24410;DHT22;12543;53.364;-1.504;2023-04-03T04:57:59;3.50;99.90
24410;DHT22;12543;53.364;-1.504;2023-04-03T05:00:27;3.50;99.90
24410;DHT22;12543;53.364;-1.504;2023-04-03T05:02:55;3.40;99.90
24410;DHT22;12543;53.364;-1.504;2023-04-03T05:05:22;3.40;99.90
24410;DHT22;12543;53.364;-1.504;2023-04-03T05:07:50;3.40;99.90
24410;DHT22;12543;53.364;-1.504;2023-04-03T05:10:17;3.40;99.90
24410;DHT22;12543;53.364;-1.504;2023-04-03T05:12:45;3.30;99.90
24410;DHT22;12543;53.364;-1.504;2023-04-03T05:15:13;3.30;99.90
24410;DHT22;12543;53.364;-1.504;2023-04-03T05:17:40;3.30;99.90
24410;DHT22;12543;53.364;-1.504;2023-04-03T05:20:11;3.30;99.90
24410;DHT22;12543;53.364;-1.504;2023-04-03T05:22:38;3.30;99.90
24410;DHT22;12543;53.364;-1.504;2023-04-03T05:25:08;3.20;99.90
24410;DHT22;12543;53.364;-1.504;2023-04-03T05:27:35;3.20;99.90
24410;DHT22;12543;53.364;-1.504;2023-04-03T05:30:03;3.20;99.90
24410;DHT22;12543;53.364;-1.504;2023-04-03T05:32:32;3.20;99.90
24410;DHT22;12543;53.364;-1.504;2023-04-03T05:35:29;3.20;99.90
24410;DHT22;12543;53.364;-1.504;2023-04-03T05:37:59;3.20;99.90
24410;DHT22;12543;53.364;-1.504;2023-04-03T05:40:26;3.20;99.90
24410;DHT22;12543;53.364;-1.504;2023-04-03T05:42:55;3.20;99.90
24410;DHT22;12543;53.364;-1.504;2023-04-03T05:45:24;3.20;99.90
24410;DHT22;12543;53.364;-1.504;2023-04-03T05:47:51;3.20;99.90
24410;DHT22;12543;53.364;-1.504;2023-04-03T05:50:19;3.20;99.90
24410;DHT22;12543;53.364;-1.504;2023-04-03T05:52:49;3.20;99.90
24410;DHT22;12543;53.364;-1.504;2023-04-03T05:55:17;3.20;99.90
24410;DHT22;12543;53.364;-1.504;2023-04-03T05:57:44;3.20;99.90
24410;DHT22;12543;53.364;-1.504;2023-04-03T06:00:14;3.20;99.90
24410;DHT22;12543;53.364;-1.504;2023-04-03T06:02:49;3.30;99.90
24410;DHT22;12543;53.364;-1.504;2023-04-03T06:05:20;3.20;99.90
24410;DHT22;12543;53.364;-1.504;2023-04-03T06:07:47;3.30;99.90
24410;DHT22;12543;53.364;-1.504;2023-04-03T06:10:16;3.30;99.90
24410;DHT22;12543;53.364;-1.504;2023-04-03T06:12:44;3.30;99.90
24410;DHT22;12543;53.364;-1.504;2023-04-03T06:15:11;3.30;99.90
24410;DHT22;12543;53.364;-1.504;2023-04-03T06:17:39;3.30;99.90
24410;DHT22;12543;53.364;-1.504;2023-04-03T06:20:07;3.30;99.90
24410;DHT22;12543;53.364;-1.504;2023-04-03T06:22:34;3.30;99.90
24410;DHT22;12543;53.364;-1.504;2023-04-03T06:25:02;3.30;99.90
24410;DHT22;12543;53.364;-1.504;2023-04-03T06:27:29;3.30;99.90
24410;DHT22;12543;53.364;-1.504;2023-04-03T06:29:55;3.30;99.90
24410;DHT22;12543;53.364;-1.504;2023-04-03T06:32:22;3.30;99.90
24410;DHT22;12543;53.364;-1.504;2023-04-03T06:34:49;3.30;99.90
24410;DHT22;12543;53.364;-1.504;2023-04-03T06:37:17;3.30;99.90
24410;DHT22;12543;53.364;-1.504;2023-04-03T06:39:45;3.40;99.90
24410;DHT22;12543;53.364;-1.504;2023-04-03T06:42:12;3.40;99.90
24410;DHT22;12543;53.364;-1.504;2023-04-03T06:44:50;3.40;99.90
24410;DHT22;12543;53.364;-1.504;2023-04-03T06:47:17;3.50;99.90
24410;DHT22;12543;53.364;-1.504;2023-04-03T06:49:44;3.50;99.90
24410;DHT22;12543;53.364;-1.504;2023-04-03T06:52:11;3.60;99.90
24410;DHT22;12543;53.364;-1.504;2023-04-03T06:54:40;3.60;99.90
24410;DHT22;12543;53.364;-1.504;2023-04-03T06:57:07;3.60;99.90
24410;DHT22;12543;53.364;-1.504;2023-04-03T06:59:35;3.70;99.90
24410;DHT22;12543;53.364;-1.504;2023-04-03T07:02:02;3.80;99.90
24410;DHT22;12543;53.364;-1.504;2023-04-03T07:04:29;3.80;99.90
24410;DHT22;12543;53.364;-1.504;2023-04-03T07:06:56;3.90;99.90
24410;DHT22;12543;53.364;-1.504;2023-04-03T07:09:23;3.90;99.90
24410;DHT22;12543;53.364;-1.504;2023-04-03T07:11:50;4.00;99.90
24410;DHT22;12543;53.364;-1.504;2023-04-03T07:14:17;4.00;99.90
24410;DHT22;12543;53.364;-1.504;2023-04-03T07:16:44;4.10;99.90
24410;DHT22;12543;53.364;-1.504;2023-04-03T07:19:11;4.10;99.90
24410;DHT22;12543;53.364;-1.504;2023-04-03T07:21:38;4.20;99.90
24410;DHT22;12543;53.364;-1.504;2023-04-03T07:24:05;4.20;99.90
24410;DHT22;12543;53.364;-1.504;2023-04-03T07:26:34;4.30;99.90
24410;DHT22;12543;53.364;-1.504;2023-04-03T07:29:02;4.40;99.90
24410;DHT22;12543;53.364;-1.504;2023-04-03T07:31:29;4.40;99.90
24410;DHT22;12543;53.364;-1.504;2023-04-03T07:33:56;4.50;99.90
24410;DHT22;12543;53.364;-1.504;2023-04-03T07:36:23;4.50;99.90
24410;DHT22;12543;53.364;-1.504;2023-04-03T07:38:50;4.60;99.90
24410;DHT22;12543;53.364;-1.504;2023-04-03T07:41:18;4.70;99.90
24410;DHT22;12543;53.364;-1.504;2023-04-03T07:43:46;4.80;99.90
24410;DHT22;12543;53.364;-1.504;2023-04-03T07:46:13;4.80;99.90
24410;DHT22;12543;53.364;-1.504;2023-04-03T07:48:40;4.90;99.90
24410;DHT22;12543;53.364;-1.504;2023-04-03T07:51:07;5.00;99.90
24410;DHT22;12543;53.364;-1.504;2023-04-03T07:53:34;5.10;99.90
24410;DHT22;12543;53.364;-1.504;2023-04-03T07:56:01;5.20;99.90
24410;DHT22;12543;53.364;-1.504;2023-04-03T07:58:29;5.30;99.90
24410;DHT22;12543;53.364;-1.504;2023-04-03T08:00:56;5.40;99.90
24410;DHT22;12543;53.364;-1.504;2023-04-03T08:03:23;5.50;99.90
24410;DHT22;12543;53.364;-1.504;2023-04-03T08:05:51;5.50;99.90
24410;DHT22;12543;53.364;-1.504;2023-04-03T08:08:21;5.60;99.90
24410;DHT22;12543;53.364;-1.504;2023-04-03T08:10:52;5.70;99.90
24410;DHT22;12543;53.364;-1.504;2023-04-03T08:13:19;5.70;99.90
24410;DHT22;12543;53.364;-1.504;2023-04-03T08:15:46;5.80;99.90
24410;DHT22;12543;53.364;-1.504;2023-04-03T08:18:14;5.80;99.90
24410;DHT22;12543;53.364;-1.504;2023-04-03T08:20:41;5.90;99.90
24410;DHT22;12543;53.364;-1.504;2023-04-03T08:23:08;5.90;99.90
24410;DHT22;12543;53.364;-1.504;2023-04-03T08:25:39;6.00;99.90
24410;DHT22;12543;53.364;-1.504;2023-04-03T08:28:06;6.00;99.90
24410;DHT22;12543;53.364;-1.504;2023-04-03T08:30:33;6.10;99.90
24410;DHT22;12543;53.364;-1.504;2023-04-03T08:33:01;6.20;99.90
24410;DHT22;12543;53.364;-1.504;2023-04-03T08:35:28;6.30;99.90
24410;DHT22;12543;53.364;-1.504;2023-04-03T08:37:55;6.40;99.90
24410;DHT22;12543;53.364;-1.504;2023-04-03T08:40:23;6.50;99.90
24410;DHT22;12543;53.364;-1.504;2023-04-03T08:45:18;6.60;99.90
24410;DHT22;12543;53.364;-1.504;2023-04-03T08:50:26;6.80;99.90
24410;DHT22;12543;53.364;-1.504;2023-04-03T08:52:55;6.90;99.90
24410;DHT22;12543;53.364;-1.504;2023-04-03T08:55:28;7.00;99.90
24410;DHT22;12543;53.364;-1.504;2023-04-03T08:58:06;7.10;99.90
24410;DHT22;12543;53.364;-1.504;2023-04-03T09:03:19;7.20;99.90
24410;DHT22;12543;53.364;-1.504;2023-04-03T09:05:51;7.30;99.90
24410;DHT22;12543;53.364;-1.504;2023-04-03T09:08:24;7.40;99.90
24410;DHT22;12543;53.364;-1.504;2023-04-03T09:10:57;7.50;99.90
24410;DHT22;12543;53.364;-1.504;2023-04-03T09:13:35;7.60;99.90
24410;DHT22;12543;53.364;-1.504;2023-04-03T09:16:20;7.70;99.90
24410;DHT22;12543;53.364;-1.504;2023-04-03T09:18:53;7.90;99.90
24410;DHT22;12543;53.364;-1.504;2023-04-03T09:21:27;8.30;99.90
24410;DHT22;12543;53.364;-1.504;2023-04-03T09:23:56;8.70;99.90
24410;DHT22;12543;53.364;-1.504;2023-04-03T09:28:54;9.40;99.90
24410;DHT22;12543;53.364;-1.504;2023-04-03T09:31:23;9.70;99.90
24410;DHT22;12543;53.364;-1.504;2023-04-03T09:33:54;10.00;99.90
24410;DHT22;12543;53.364;-1.504;2023-04-03T09:39:16;10.70;99.90
24410;DHT22;12543;53.364;-1.504;2023-04-03T09:41:54;11.20;99.90
24410;DHT22;12543;53.364;-1.504;2023-04-03T09:44:22;11.70;99.90
24410;DHT22;12543;53.364;-1.504;2023-04-03T09:46:50;12.20;99.90
24410;DHT22;12543;53.364;-1.504;2023-04-03T09:49:17;12.50;99.90
24410;DHT22;12543;53.364;-1.504;2023-04-03T09:51:44;12.70;99.90
24410;DHT22;12543;53.364;-1.504;2023-04-03T09:54:25;12.80;99.90
24410;DHT22;12543;53.364;-1.504;2023-04-03T09:56:53;12.90;99.90
24410;DHT22;12543;53.364;-1.504;2023-04-03T09:59:22;13.10;99.90
24410;DHT22;12543;53.364;-1.504;2023-04-03T10:01:59;13.30;99.90
24410;DHT22;12543;53.364;-1.504;2023-04-03T10:04:37;13.60;99.90
24410;DHT22;12543;53.364;-1.504;2023-04-03T10:07:04;13.90;99.90
24410;DHT22;12543;53.364;-1.504;2023-04-03T10:09:55;14.20;99.90
24410;DHT22;12543;53.364;-1.504;2023-04-03T10:12:22;14.60;99.90
24410;DHT22;12543;53.364;-1.504;2023-04-03T10:25:38;16.20;99.90
24410;DHT22;12543;53.364;-1.504;2023-04-03T10:28:12;16.50;99.90
24410;DHT22;12543;53.364;-1.504;2023-04-03T10:33:20;17.20;99.90
24410;DHT22;12543;53.364;-1.504;2023-04-03T10:36:02;17.60;99.90
24410;DHT22;12543;53.364;-1.504;2023-04-03T10:41:24;18.10;99.90
24410;DHT22;12543;53.364;-1.504;2023-04-03T10:46:52;18.20;99.90
24410;DHT22;12543;53.364;-1.504;2023-04-03T10:54:41;18.70;99.90
24410;DHT22;12543;53.364;-1.504;2023-04-03T10:57:10;18.90;99.90
24410;DHT22;12543;53.364;-1.504;2023-04-03T10:59:56;18.90;99.90
24410;DHT22;12543;53.364;-1.504;2023-04-03T11:02:26;19.00;99.90
24410;DHT22;12543;53.364;-1.504;2023-04-03T11:04:59;18.90;99.90
24410;DHT22;12543;53.364;-1.504;2023-04-03T11:07:28;19.00;99.90
24410;DHT22;12543;53.364;-1.504;2023-04-03T11:10:06;18.90;99.90
24410;DHT22;12543;53.364;-1.504;2023-04-03T11:12:38;19.10;99.90
24410;DHT22;12543;53.364;-1.504;2023-04-03T11:15:11;19.20;99.90
24410;DHT22;12543;53.364;-1.504;2023-04-03T11:17:40;19.30;99.90
24410;DHT22;12543;53.364;-1.504;2023-04-03T11:22:41;18.90;99.90
24410;DHT22;12543;53.364;-1.504;2023-04-03T11:27:40;19.00;99.90
24410;DHT22;12543;53.364;-1.504;2023-04-03T11:30:17;19.10;99.90
24410;DHT22;12543;53.364;-1.504;2023-04-03T11:35:12;19.30;99.90
24410;DHT22;12543;53.364;-1.504;2023-04-03T11:37:47;19.40;99.90
24410;DHT22;12543;53.364;-1.504;2023-04-03T11:42:42;19.50;99.90
24410;DHT22;12543;53.364;-1.504;2023-04-03T11:45:16;19.50;99.90
24410;DHT22;12543;53.364;-1.504;2023-04-03T11:47:49;19.50;99.90
24410;DHT22;12543;53.364;-1.504;2023-04-03T11:58:04;19.50;99.90
24410;DHT22;12543;53.364;-1.504;2023-04-03T12:05:54;19.20;99.90
24410;DHT22;12543;53.364;-1.504;2023-04-03T12:08:29;19.10;99.90
24410;DHT22;12543;53.364;-1.504;2023-04-03T12:11:42;18.70;99.90
24410;DHT22;12543;53.364;-1.504;2023-04-03T12:22:10;18.30;99.90
24410;DHT22;12543;53.364;-1.504;2023-04-03T12:31:55;18.50;99.90
24410;DHT22;12543;53.364;-1.504;2023-04-03T12:37:09;18.70;99.90
24410;DHT22;12543;53.364;-1.504;2023-04-03T12:42:55;19.00;99.90
24410;DHT22;12543;53.364;-1.504;2023-04-03T12:45:08;19.10;99.90
24410;DHT22;12543;53.364;-1.504;2023-04-03T12:47:37;19.00;99.90
24410;DHT22;12543;53.364;-1.504;2023-04-03T12:53:06;18.80;99.90
24410;DHT22;12543;53.364;-1.504;2023-04-03T12:55:38;18.80;99.90
24410;DHT22;12543;53.364;-1.504;2023-04-03T12:58:21;18.80;99.90
24410;DHT22;12543;53.364;-1.504;2023-04-03T13:01:03;18.80;99.90
24410;DHT22;12543;53.364;-1.504;2023-04-03T13:03:30;18.80;99.90
24410;DHT22;12543;53.364;-1.504;2023-04-03T13:05:59;18.80;99.90
24410;DHT22;12543;53.364;-1.504;2023-04-03T13:08:26;18.60;99.90
24410;DHT22;12543;53.364;-1.504;2023-04-03T13:10:55;18.60;99.90
24410;DHT22;12543;53.364;-1.504;2023-04-03T13:13:22;18.60;99.90
24410;DHT22;12543;53.364;-1.504;2023-04-03T13:15:49;18.70;99.90
24410;DHT22;12543;53.364;-1.504;2023-04-03T13:18:36;18.80;99.90
24410;DHT22;12543;53.364;-1.504;2023-04-03T13:21:04;18.90;99.90
24410;DHT22;12543;53.364;-1.504;2023-04-03T13:23:32;18.90;99.90
24410;DHT22;12543;53.364;-1.504;2023-04-03T13:26:00;19.00;99.90
24410;DHT22;12543;53.364;-1.504;2023-04-03T13:28:30;18.90;99.90
24410;DHT22;12543;53.364;-1.504;2023-04-03T13:33:25;18.50;99.90
24410;DHT22;12543;53.364;-1.504;2023-04-03T13:38:29;17.90;99.90
24410;DHT22;12543;53.364;-1.504;2023-04-03T13:41:02;17.60;99.90
24410;DHT22;12543;53.364;-1.504;2023-04-03T13:43:32;17.40;99.90
24410;DHT22;12543;53.364;-1.504;2023-04-03T13:48:43;17.00;99.90
24410;DHT22;12543;53.364;-1.504;2023-04-03T13:53:42;16.80;99.90
24410;DHT22;12543;53.364;-1.504;2023-04-03T13:56:18;16.60;99.90
24410;DHT22;12543;53.364;-1.504;2023-04-03T13:59:01;16.50;99.90
24410;DHT22;12543;53.364;-1.504;2023-04-03T14:04:16;16.20;99.90
24410;DHT22;12543;53.364;-1.504;2023-04-03T14:06:43;16.00;99.90
24410;DHT22;12543;53.364;-1.504;2023-04-03T14:09:10;16.00;99.90
24410;DHT22;12543;53.364;-1.504;2023-04-03T14:11:37;15.90;99.90
24410;DHT22;12543;53.364;-1.504;2023-04-03T14:14:09;15.80;99.90
24410;DHT22;12543;53.364;-1.504;2023-04-03T14:16:37;15.70;99.90
24410;DHT22;12543;53.364;-1.504;2023-04-03T14:19:05;15.60;99.90
24410;DHT22;12543;53.364;-1.504;2023-04-03T14:21:31;15.50;99.90
24410;DHT22;12543;53.364;-1.504;2023-04-03T14:23:59;15.50;99.90
24410;DHT22;12543;53.364;-1.504;2023-04-03T14:26:25;15.50;99.90
24410;DHT22;12543;53.364;-1.504;2023-04-03T14:28:55;15.40;99.90
24410;DHT22;12543;53.364;-1.504;2023-04-03T14:31:23;15.50;99.90
24410;DHT22;12543;53.364;-1.504;2023-04-03T14:33:50;15.40;99.90
24410;DHT22;12543;53.364;-1.504;2023-04-03T14:36:19;15.50;99.90
24410;DHT22;12543;53.364;-1.504;2023-04-03T14:38:47;15.40;99.90
24410;DHT22;12543;53.364;-1.504;2023-04-03T14:41:17;15.40;99.90
24410;DHT22;12543;53.364;-1.504;2023-04-03T14:43:44;15.30;99.90
24410;DHT22;12543;53.364;-1.504;2023-04-03T14:46:26;15.30;99.90
24410;DHT22;12543;53.364;-1.504;2023-04-03T14:49:12;15.30;99.90
24410;DHT22;12543;53.364;-1.504;2023-04-03T14:51:40;15.30;99.90
24410;DHT22;12543;53.364;-1.504;2023-04-03T14:54:12;15.20;99.90
24410;DHT22;12543;53.364;-1.504;2023-04-03T14:56:39;15.10;99.90
24410;DHT22;12543;53.364;-1.504;2023-04-03T14:59:08;15.00;99.90
24410;DHT22;12543;53.364;-1.504;2023-04-03T15:01:36;15.00;99.90
24410;DHT22;12543;53.364;-1.504;2023-04-03T15:04:13;15.00;99.90
24410;DHT22;12543;53.364;-1.504;2023-04-03T15:06:40;15.00;99.90
24410;DHT22;12543;53.364;-1.504;2023-04-03T15:09:14;15.00;99.90
24410;DHT22;12543;53.364;-1.504;2023-04-03T15:11:44;14.90;99.90
24410;DHT22;12543;53.364;-1.504;2023-04-03T15:14:11;14.90;99.90
24410;DHT22;12543;53.364;-1.504;2023-04-03T15:16:38;14.80;99.90
24410;DHT22;12543;53.364;-1.504;2023-04-03T15:19:05;14.70;99.90
24410;DHT22;12543;53.364;-1.504;2023-04-03T15:21:32;14.70;99.90
24410;DHT22;12543;53.364;-1.504;2023-04-03T15:23:58;14.70;99.90
24410;DHT22;12543;53.364;-1.504;2023-04-03T15:26:27;14.50;99.90
24410;DHT22;12543;53.364;-1.504;2023-04-03T15:28:54;14.40;99.90
24410;DHT22;12543;53.364;-1.504;2023-04-03T15:31:21;14.30;99.90
24410;DHT22;12543;53.364;-1.504;2023-04-03T15:33:48;14.10;99.90
24410;DHT22;12543;53.364;-1.504;2023-04-03T15:36:15;14.00;99.90
24410;DHT22;12543;53.364;-1.504;2023-04-03T15:38:59;13.90;99.90
24410;DHT22;12543;53.364;-1.504;2023-04-03T15:41:26;13.90;99.90
24410;DHT22;12543;53.364;-1.504;2023-04-03T15:43:53;13.70;99.90
24410;DHT22;12543;53.364;-1.504;2023-04-03T15:46:20;13.70;99.90
24410;DHT22;12543;53.364;-1.504;2023-04-03T15:48:47;13.50;99.90
24410;DHT22;12543;53.364;-1.504;2023-04-03T15:51:16;13.40;99.90
24410;DHT22;12543;53.364;-1.504;2023-04-03T15:53:42;13.40;99.90
24410;DHT22;12543;53.364;-1.504;2023-04-03T15:56:09;13.30;99.90
24410;DHT22;12543;53.364;-1.504;2023-04-03T15:58:38;13.20;99.90
24410;DHT22;12543;53.364;-1.504;2023-04-03T16:01:05;13.10;99.90
24410;DHT22;12543;53.364;-1.504;2023-04-03T16:03:32;13.10;99.90
24410;DHT22;12543;53.364;-1.504;2023-04-03T16:06:00;13.10;99.90
24410;DHT22;12543;53.364;-1.504;2023-04-03T16:08:27;13.00;99.90
24410;DHT22;12543;53.364;-1.504;2023-04-03T16:10:54;12.90;99.90
24410;DHT22;12543;53.364;-1.504;2023-04-03T16:13:21;12.80;99.90
24410;DHT22;12543;53.364;-1.504;2023-04-03T16:15:48;12.80;99.90
24410;DHT22;12543;53.364;-1.504;2023-04-03T16:18:16;12.70;99.90
24410;DHT22;12543;53.364;-1.504;2023-04-03T16:20:44;12.60;99.90
24410;DHT22;12543;53.364;-1.504;2023-04-03T16:23:11;12.60;99.90
24410;DHT22;12543;53.364;-1.504;2023-04-03T16:25:38;12.50;99.90
24410;DHT22;12543;53.364;-1.504;2023-04-03T16:28:06;12.40;99.90
24410;DHT22;12543;53.364;-1.504;2023-04-03T16:30:33;12.40;99.90
24410;DHT22;12543;53.364;-1.504;2023-04-03T16:33:00;12.30;99.90
24410;DHT22;12543;53.364;-1.504;2023-04-03T16:35:27;12.30;99.90
24410;DHT22;12543;53.364;-1.504;2023-04-03T16:37:55;12.20;99.90
24410;DHT22;12543;53.364;-1.504;2023-04-03T16:40:22;12.20;99.90
24410;DHT22;12543;53.364;-1.504;2023-04-03T16:42:49;12.20;99.90
24410;DHT22;12543;53.364;-1.504;2023-04-03T16:45:16;12.10;99.90
24410;DHT22;12543;53.364;-1.504;2023-04-03T16:47:43;12.10;99.90
24410;DHT22;12543;53.364;-1.504;2023-04-03T16:50:10;12.00;99.90
24410;DHT22;12543;53.364;-1.504;2023-04-03T16:52:37;12.00;99.90
24410;DHT22;12543;53.364;-1.504;2023-04-03T16:55:04;11.90;99.90
24410;DHT22;12543;53.364;-1.504;2023-04-03T16:57:31;11.90;99.90
24410;DHT22;12543;53.364;-1.504;2023-04-03T16:59:58;11.90;99.90
24410;DHT22;12543;53.364;-1.504;2023-04-03T17:02:25;11.80;99.90
24410;DHT22;12543;53.364;-1.504;2023-04-03T17:04:53;11.80;99.90
24410;DHT22;12543;53.364;-1.504;2023-04-03T17:07:20;11.80;99.90
24410;DHT22;12543;53.364;-1.504;2023-04-03T17:09:48;11.80;99.90
24410;DHT22;12543;53.364;-1.504;2023-04-03T17:12:15;11.80;99.90
24410;DHT22;12543;53.364;-1.504;2023-04-03T17:14:42;11.70;99.90
24410;DHT22;12543;53.364;-1.504;2023-04-03T17:17:09;11.70;99.90